sensor_id;sensor_type;location;lat;lon;timestamp;P1;durP1;ratioP1;P2;durP2;ratioP2
30243;SDS011;64022;53.652;9.792;2023-04-25T00:01:44;21.95;;;15.00;;
30243;SDS011;64022;53.652;9.792;2023-04-25T00:04:10;21.83;;;14.90;;
30243;SDS011;64022;53.652;9.792;2023-04-25T00:06:36;22.52;;;15.57;;
30243;SDS011;64022;53.652;9.792;2023-04-25T00:09:03;20.87;;;15.17;;
30243;SDS011;64022;53.652;9.792;2023-04-25T00:11:32;21.60;;;14.68;;
30243;SDS011;64022;53.652;9.792;2023-04-25T00:13:58;24.37;;;15.47;;
30243;SDS011;64022;53.652;9.792;2023-04-25T00:16:24;22.80;;;15.65;;
30243;SDS011;64022;53.652;9.792;2023-04-25T00:18:50;22.33;;;15.07;;
30243;SDS011;64022;53.652;9.792;2023-04-25T00:21:18;22.73;;;15.10;;
30243;SDS011;64022;53.652;9.792;2023-04-25T00:23:45;21.65;;;14.85;;
30243;SDS011;64022;53.652;9.792;2023-04-25T00:26:11;22.43;;;15.13;;
30243;SDS011;64022;53.652;9.792;2023-04-25T00:28:37;20.70;;;15.18;;
30243;SDS011;64022;53.652;9.792;2023-04-25T00:31:02;20.17;;;14.40;;
30243;SDS011;64022;53.652;9.792;2023-04-25T00:33:28;22.00;;;15.43;;
30243;SDS011;64022;53.652;9.792;2023-04-25T00:35:55;21.07;;;14.43;;
30243;SDS011;64022;53.652;9.792;2023-04-25T00:38:20;21.05;;;14.75;;
30243;SDS011;64022;53.652;9.792;2023-04-25T00:40:46;22.00;;;14.20;;
30243;SDS011;64022;53.652;9.792;2023-04-25T00:43:12;21.87;;;14.90;;
30243;SDS011;64022;53.652;9.792;2023-04-25T00:45:38;23.53;;;15.20;;
30243;SDS011;64022;53.652;9.792;2023-04-25T00:50:30;19.90;;;13.90;;
30243;SDS011;64022;53.652;9.792;2023-04-25T00:55:22;20.00;;;13.50;;
30243;SDS011;64022;53.652;9.792;2023-04-25T00:57:48;21.23;;;14.53;;
30243;SDS011;64022;53.652;9.792;2023-04-25T01:00:14;22.17;;;14.50;;
30243;SDS011;64022;53.652;9.792;2023-04-25T01:02:40;20.27;;;14.57;;
30243;SDS011;64022;53.652;9.792;2023-04-25T01:05:10;22.27;;;14.82;;
30243;SDS011;64022;53.652;9.792;2023-04-25T01:07:36;19.63;;;14.38;;
30243;SDS011;64022;53.652;9.792;2023-04-25T01:10:03;20.47;;;14.00;;
30243;SDS011;64022;53.652;9.792;2023-04-25T01:12:29;22.45;;;14.82;;
30243;SDS011;64022;53.652;9.792;2023-04-25T01:14:55;19.17;;;13.73;;
30243;SDS011;64022;53.652;9.792;2023-04-25T01:17:21;20.60;;;14.53;;
30243;SDS011;64022;53.652;9.792;2023-04-25T01:19:47;19.07;;;14.37;;
30243;SDS011;64022;53.652;9.792;2023-04-25T01:22:14;21.70;;;13.38;;
30243;SDS011;64022;53.652;9.792;2023-04-25T01:24:40;22.15;;;14.60;;
30243;SDS011;64022;53.652;9.792;2023-04-25T01:27:06;22.35;;;14.73;;
30243;SDS011;64022;53.652;9.792;2023-04-25T01:29:32;19.25;;;13.25;;
30243;SDS011;64022;53.652;9.792;2023-04-25T01:31:59;18.80;;;13.75;;
30243;SDS011;64022;53.652;9.792;2023-04-25T01:34:26;18.50;;;12.80;;
30243;SDS011;64022;53.652;9.792;2023-04-25T01:36:51;18.97;;;12.63;;
30243;SDS011;64022;53.652;9.792;2023-04-25T01:39:18;19.13;;;13.52;;
30243;SDS011;64022;53.652;9.792;2023-04-25T01:41:45;18.33;;;13.27;;
30243;SDS011;64022;53.652;9.792;2023-04-25T01:44:12;20.70;;;13.82;;
30243;SDS011;64022;53.652;9.792;2023-04-25T01:46:38;18.23;;;13.30;;
30243;SDS011;64022;53.652;9.792;2023-04-25T01:49:04;18.40;;;12.17;;
30243;SDS011;64022;53.652;9.792;2023-04-25T01:51:30;19.92;;;13.18;;
30243;SDS011;64022;53.652;9.792;2023-04-25T01:53:56;22.52;;;13.60;;
30243;SDS011;64022;53.652;9.792;2023-04-25T01:56:23;19.42;;;13.25;;
30243;SDS011;64022;53.652;9.792;2023-04-25T01:58:48;19.13;;;13.07;;
30243;SDS011;64022;53.652;9.792;2023-04-25T02:01:14;18.37;;;12.77;;
30243;SDS011;64022;53.652;9.792;2023-04-25T02:03:39;18.90;;;12.83;;
30243;SDS011;64022;53.652;9.792;2023-04-25T02:06:05;19.10;;;13.67;;
30243;SDS011;64022;53.652;9.792;2023-04-25T02:08:31;19.40;;;12.93;;
30243;SDS011;64022;53.652;9.792;2023-04-25T02:10:56;18.20;;;13.13;;
30243;SDS011;64022;53.652;9.792;2023-04-25T02:13:22;18.33;;;12.23;;
30243;SDS011;64022;53.652;9.792;2023-04-25T02:15:48;18.67;;;13.57;;
30243;SDS011;64022;53.652;9.792;2023-04-25T02:18:13;17.50;;;12.70;;
30243;SDS011;64022;53.652;9.792;2023-04-25T02:20:40;21.40;;;13.50;;
30243;SDS011;64022;53.652;9.792;2023-04-25T02:23:06;18.77;;;12.27;;
30243;SDS011;64022;53.652;9.792;2023-04-25T02:25:32;17.67;;;12.57;;
30243;SDS011;64022;53.652;9.792;2023-04-25T02:27:57;18.00;;;12.77;;
30243;SDS011;64022;53.652;9.792;2023-04-25T02:30:23;19.80;;;13.10;;
30243;SDS011;64022;53.652;9.792;2023-04-25T02:32:48;18.20;;;12.97;;
30243;SDS011;64022;53.652;9.792;2023-04-25T02:35:14;20.73;;;13.43;;
30243;SDS011;64022;53.652;9.792;2023-04-25T02:37:39;19.63;;;12.97;;
30243;SDS011;64022;53.652;9.792;2023-04-25T02:40:05;16.30;;;11.57;;
30243;SDS011;64022;53.652;9.792;2023-04-25T02:42:32;15.55;;;11.75;;
30243;SDS011;64022;53.652;9.792;2023-04-25T02:44:57;19.33;;;13.00;;
30243;SDS011;64022;53.652;9.792;2023-04-25T02:47:23;23.17;;;12.27;;
30243;SDS011;64022;53.652;9.792;2023-04-25T02:49:49;17.57;;;12.00;;
30243;SDS011;64022;53.652;9.792;2023-04-25T02:52:14;19.10;;;11.70;;
30243;SDS011;64022;53.652;9.792;2023-04-25T02:54:40;15.20;;;10.93;;
30243;SDS011;64022;53.652;9.792;2023-04-25T02:57:06;16.63;;;11.73;;
30243;SDS011;64022;53.652;9.792;2023-04-25T02:59:32;18.83;;;12.30;;
30243;SDS011;64022;53.652;9.792;2023-04-25T03:01:58;17.30;;;11.43;;
30243;SDS011;64022;53.652;9.792;2023-04-25T03:04:23;16.73;;;12.23;;
30243;SDS011;64022;53.652;9.792;2023-04-25T03:06:52;17.00;;;12.20;;
30243;SDS011;64022;53.652;9.792;2023-04-25T03:09:18;16.27;;;11.25;;
30243;SDS011;64022;53.652;9.792;2023-04-25T03:11:44;17.43;;;11.60;;
30243;SDS011;64022;53.652;9.792;2023-04-25T03:14:10;19.55;;;12.32;;
30243;SDS011;64022;53.652;9.792;2023-04-25T03:16:36;19.60;;;12.02;;
30243;SDS011;64022;53.652;9.792;2023-04-25T03:19:02;16.53;;;11.70;;
30243;SDS011;64022;53.652;9.792;2023-04-25T03:21:29;16.33;;;11.10;;
30243;SDS011;64022;53.652;9.792;2023-04-25T03:23:56;15.90;;;11.25;;
30243;SDS011;64022;53.652;9.792;2023-04-25T03:26:22;17.65;;;12.18;;
30243;SDS011;64022;53.652;9.792;2023-04-25T03:28:48;19.93;;;11.47;;
30243;SDS011;64022;53.652;9.792;2023-04-25T03:31:14;20.23;;;12.73;;
30243;SDS011;64022;53.652;9.792;2023-04-25T03:33:39;18.73;;;11.93;;
30243;SDS011;64022;53.652;9.792;2023-04-25T03:36:05;22.50;;;12.40;;
30243;SDS011;64022;53.652;9.792;2023-04-25T03:38:31;25.67;;;12.13;;
30243;SDS011;64022;53.652;9.792;2023-04-25T03:40:56;17.57;;;10.53;;
30243;SDS011;64022;53.652;9.792;2023-04-25T03:43:22;22.27;;;10.90;;
30243;SDS011;64022;53.652;9.792;2023-04-25T03:45:47;14.93;;;10.23;;
30243;SDS011;64022;53.652;9.792;2023-04-25T03:48:13;16.90;;;10.80;;
30243;SDS011;64022;53.652;9.792;2023-04-25T03:50:38;18.13;;;11.40;;
30243;SDS011;64022;53.652;9.792;2023-04-25T03:53:04;18.43;;;11.07;;
30243;SDS011;64022;53.652;9.792;2023-04-25T03:55:30;20.90;;;10.20;;
30243;SDS011;64022;53.652;9.792;2023-04-25T03:57:56;19.10;;;10.10;;
30243;SDS011;64022;53.652;9.792;2023-04-25T04:00:22;19.10;;;10.75;;
30243;SDS011;64022;53.652;9.792;2023-04-25T04:02:48;16.27;;;10.03;;
30243;SDS011;64022;53.652;9.792;2023-04-25T04:05:14;20.93;;;11.67;;
30243;SDS011;64022;53.652;9.792;2023-04-25T04:07:39;17.50;;;11.23;;
30243;SDS011;64022;53.652;9.792;2023-04-25T04:10:07;21.85;;;10.15;;
30243;SDS011;64022;53.652;9.792;2023-04-25T04:12:36;18.05;;;10.98;;
30243;SDS011;64022;53.652;9.792;2023-04-25T04:15:03;17.13;;;9.82;;
30243;SDS011;64022;53.652;9.792;2023-04-25T04:17:29;15.77;;;10.35;;
30243;SDS011;64022;53.652;9.792;2023-04-25T04:19:55;17.37;;;9.77;;
30243;SDS011;64022;53.652;9.792;2023-04-25T04:22:21;18.33;;;10.63;;
30243;SDS011;64022;53.652;9.792;2023-04-25T04:24:47;20.23;;;10.57;;
30243;SDS011;64022;53.652;9.792;2023-04-25T04:27:14;16.63;;;11.38;;
30243;SDS011;64022;53.652;9.792;2023-04-25T04:29:42;16.55;;;9.40;;
30243;SDS011;64022;53.652;9.792;2023-04-25T04:32:08;20.20;;;10.57;;
30243;SDS011;64022;53.652;9.792;2023-04-25T04:34:33;15.17;;;9.47;;
30243;SDS011;64022;53.652;9.792;2023-04-25T04:36:59;15.10;;;9.88;;
30243;SDS011;64022;53.652;9.792;2023-04-25T04:39:25;20.40;;;10.07;;
30243;SDS011;64022;53.652;9.792;2023-04-25T04:41:51;15.43;;;9.50;;
30243;SDS011;64022;53.652;9.792;2023-04-25T04:44:16;18.17;;;9.97;;
30243;SDS011;64022;53.652;9.792;2023-04-25T04:46:42;14.57;;;9.60;;
30243;SDS011;64022;53.652;9.792;2023-04-25T04:49:09;18.80;;;10.45;;
30243;SDS011;64022;53.652;9.792;2023-04-25T04:51:36;16.02;;;10.50;;
30243;SDS011;64022;53.652;9.792;2023-04-25T04:54:02;15.18;;;9.88;;
30243;SDS011;64022;53.652;9.792;2023-04-25T04:56:29;16.73;;;10.07;;
30243;SDS011;64022;53.652;9.792;2023-04-25T04:58:56;17.70;;;10.43;;
30243;SDS011;64022;53.652;9.792;2023-04-25T05:03:48;16.02;;;9.02;;
30243;SDS011;64022;53.652;9.792;2023-04-25T05:06:13;16.13;;;9.93;;
30243;SDS011;64022;53.652;9.792;2023-04-25T05:08:39;15.10;;;9.13;;
30243;SDS011;64022;53.652;9.792;2023-04-25T05:11:04;15.53;;;9.50;;
30243;SDS011;64022;53.652;9.792;2023-04-25T05:13:30;13.87;;;9.50;;
30243;SDS011;64022;53.652;9.792;2023-04-25T05:15:55;13.03;;;8.90;;
30243;SDS011;64022;53.652;9.792;2023-04-25T05:18:21;13.83;;;8.63;;
30243;SDS011;64022;53.652;9.792;2023-04-25T05:20:46;16.23;;;9.93;;
30243;SDS011;64022;53.652;9.792;2023-04-25T05:23:12;14.67;;;8.90;;
30243;SDS011;64022;53.652;9.792;2023-04-25T05:25:37;16.33;;;9.90;;
30243;SDS011;64022;53.652;9.792;2023-04-25T05:28:03;13.97;;;9.27;;
30243;SDS011;64022;53.652;9.792;2023-04-25T05:30:29;13.73;;;9.45;;
30243;SDS011;64022;53.652;9.792;2023-04-25T05:32:55;14.63;;;8.90;;
30243;SDS011;64022;53.652;9.792;2023-04-25T05:35:21;12.93;;;8.83;;
30243;SDS011;64022;53.652;9.792;2023-04-25T05:37:46;16.57;;;9.90;;
30243;SDS011;64022;53.652;9.792;2023-04-25T05:40:12;14.27;;;8.37;;
30243;SDS011;64022;53.652;9.792;2023-04-25T05:42:37;11.77;;;8.87;;
30243;SDS011;64022;53.652;9.792;2023-04-25T05:45:03;14.07;;;9.70;;
30243;SDS011;64022;53.652;9.792;2023-04-25T05:47:29;15.25;;;9.50;;
30243;SDS011;64022;53.652;9.792;2023-04-25T05:49:54;14.33;;;9.13;;
30243;SDS011;64022;53.652;9.792;2023-04-25T05:52:20;13.53;;;9.03;;
30243;SDS011;64022;53.652;9.792;2023-04-25T05:54:46;12.00;;;8.50;;
30243;SDS011;64022;53.652;9.792;2023-04-25T05:57:19;12.93;;;8.70;;
30243;SDS011;64022;53.652;9.792;2023-04-25T05:59:45;13.18;;;8.80;;
30243;SDS011;64022;53.652;9.792;2023-04-25T06:02:11;12.27;;;8.60;;
30243;SDS011;64022;53.652;9.792;2023-04-25T06:04:36;13.57;;;9.10;;
30243;SDS011;64022;53.652;9.792;2023-04-25T06:07:02;15.13;;;8.87;;
30243;SDS011;64022;53.652;9.792;2023-04-25T06:09:27;14.20;;;9.30;;
30243;SDS011;64022;53.652;9.792;2023-04-25T06:11:53;14.27;;;9.47;;
30243;SDS011;64022;53.652;9.792;2023-04-25T06:14:18;12.60;;;8.67;;
30243;SDS011;64022;53.652;9.792;2023-04-25T06:16:44;14.57;;;9.43;;
30243;SDS011;64022;53.652;9.792;2023-04-25T06:19:09;13.93;;;9.43;;
30243;SDS011;64022;53.652;9.792;2023-04-25T06:21:35;11.97;;;8.13;;
30243;SDS011;64022;53.652;9.792;2023-04-25T06:24:01;13.43;;;9.07;;
30243;SDS011;64022;53.652;9.792;2023-04-25T06:26:27;13.70;;;8.57;;
30243;SDS011;64022;53.652;9.792;2023-04-25T06:28:53;12.03;;;8.13;;
30243;SDS011;64022;53.652;9.792;2023-04-25T06:31:18;13.20;;;7.83;;
30243;SDS011;64022;53.652;9.792;2023-04-25T06:33:44;13.27;;;8.70;;
30243;SDS011;64022;53.652;9.792;2023-04-25T06:36:09;10.87;;;8.50;;
30243;SDS011;64022;53.652;9.792;2023-04-25T06:38:35;13.53;;;8.30;;
30243;SDS011;64022;53.652;9.792;2023-04-25T06:41:01;13.80;;;8.53;;
30243;SDS011;64022;53.652;9.792;2023-04-25T06:43:26;12.00;;;8.20;;
30243;SDS011;64022;53.652;9.792;2023-04-25T06:45:52;15.43;;;9.13;;
30243;SDS011;64022;53.652;9.792;2023-04-25T06:48:17;14.20;;;8.17;;
30243;SDS011;64022;53.652;9.792;2023-04-25T06:50:43;12.97;;;8.97;;
30243;SDS011;64022;53.652;9.792;2023-04-25T06:53:08;12.40;;;4.80;;
30243;SDS011;64022;53.652;9.792;2023-04-25T06:55:34;8.27;;;3.57;;
30243;SDS011;64022;53.652;9.792;2023-04-25T06:58:00;7.10;;;2.73;;
30243;SDS011;64022;53.652;9.792;2023-04-25T07:00:26;11.47;;;3.30;;
30243;SDS011;64022;53.652;9.792;2023-04-25T07:02:51;7.60;;;2.33;;
30243;SDS011;64022;53.652;9.792;2023-04-25T07:05:17;13.33;;;2.40;;
30243;SDS011;64022;53.652;9.792;2023-04-25T07:07:42;6.90;;;2.47;;
30243;SDS011;64022;53.652;9.792;2023-04-25T07:10:08;5.30;;;2.50;;
30243;SDS011;64022;53.652;9.792;2023-04-25T07:12:33;6.27;;;2.73;;
30243;SDS011;64022;53.652;9.792;2023-04-25T07:14:59;9.90;;;2.80;;
30243;SDS011;64022;53.652;9.792;2023-04-25T07:17:30;4.15;;;2.35;;
30243;SDS011;64022;53.652;9.792;2023-04-25T07:19:56;8.00;;;2.90;;
30243;SDS011;64022;53.652;9.792;2023-04-25T07:22:21;5.07;;;2.57;;
30243;SDS011;64022;53.652;9.792;2023-04-25T07:24:47;6.70;;;3.40;;
30243;SDS011;64022;53.652;9.792;2023-04-25T07:27:13;4.70;;;2.67;;
30243;SDS011;64022;53.652;9.792;2023-04-25T07:29:39;5.30;;;2.80;;
30243;SDS011;64022;53.652;9.792;2023-04-25T07:32:04;7.70;;;3.27;;
30243;SDS011;64022;53.652;9.792;2023-04-25T07:34:30;11.20;;;3.80;;
30243;SDS011;64022;53.652;9.792;2023-04-25T07:36:55;6.07;;;3.40;;
30243;SDS011;64022;53.652;9.792;2023-04-25T07:39:21;8.13;;;3.60;;
30243;SDS011;64022;53.652;9.792;2023-04-25T07:41:48;7.00;;;3.17;;
30243;SDS011;64022;53.652;9.792;2023-04-25T07:44:13;5.53;;;3.10;;
30243;SDS011;64022;53.652;9.792;2023-04-25T07:46:39;11.80;;;3.77;;
30243;SDS011;64022;53.652;9.792;2023-04-25T07:49:04;13.50;;;3.97;;
30243;SDS011;64022;53.652;9.792;2023-04-25T07:51:30;19.17;;;4.70;;
30243;SDS011;64022;53.652;9.792;2023-04-25T07:53:56;10.55;;;3.63;;
30243;SDS011;64022;53.652;9.792;2023-04-25T07:56:21;27.73;;;8.17;;
30243;SDS011;64022;53.652;9.792;2023-04-25T07:58:47;17.27;;;6.40;;
30243;SDS011;64022;53.652;9.792;2023-04-25T08:01:12;22.20;;;5.67;;
30243;SDS011;64022;53.652;9.792;2023-04-25T08:03:38;15.50;;;5.23;;
30243;SDS011;64022;53.652;9.792;2023-04-25T08:06:04;19.43;;;6.03;;
30243;SDS011;64022;53.652;9.792;2023-04-25T08:08:30;10.93;;;4.47;;
30243;SDS011;64022;53.652;9.792;2023-04-25T08:10:55;14.93;;;5.50;;
30243;SDS011;64022;53.652;9.792;2023-04-25T08:13:21;12.53;;;4.63;;
30243;SDS011;64022;53.652;9.792;2023-04-25T08:15:46;15.20;;;5.47;;
30243;SDS011;64022;53.652;9.792;2023-04-25T08:18:12;12.60;;;4.13;;
30243;SDS011;64022;53.652;9.792;2023-04-25T08:20:37;15.47;;;5.00;;
30243;SDS011;64022;53.652;9.792;2023-04-25T08:23:03;16.43;;;4.40;;
30243;SDS011;64022;53.652;9.792;2023-04-25T08:25:28;21.30;;;5.53;;
30243;SDS011;64022;53.652;9.792;2023-04-25T08:27:54;12.70;;;4.90;;
30243;SDS011;64022;53.652;9.792;2023-04-25T08:30:19;19.17;;;4.60;;
30243;SDS011;64022;53.652;9.792;2023-04-25T08:32:45;17.70;;;5.97;;
30243;SDS011;64022;53.652;9.792;2023-04-25T08:35:11;23.27;;;5.57;;
30243;SDS011;64022;53.652;9.792;2023-04-25T08:37:37;18.73;;;5.50;;
30243;SDS011;64022;53.652;9.792;2023-04-25T08:40:03;17.53;;;6.00;;
30243;SDS011;64022;53.652;9.792;2023-04-25T08:42:32;18.73;;;5.55;;
30243;SDS011;64022;53.652;9.792;2023-04-25T08:44:59;15.82;;;5.00;;
30243;SDS011;64022;53.652;9.792;2023-04-25T08:47:26;21.83;;;5.25;;
30243;SDS011;64022;53.652;9.792;2023-04-25T08:49:54;16.52;;;5.50;;
30243;SDS011;64022;53.652;9.792;2023-04-25T08:52:23;21.73;;;5.90;;
30243;SDS011;64022;53.652;9.792;2023-04-25T08:54:55;17.33;;;5.38;;
30243;SDS011;64022;53.652;9.792;2023-04-25T08:57:22;15.30;;;5.40;;
30243;SDS011;64022;53.652;9.792;2023-04-25T08:59:48;15.50;;;4.97;;
30243;SDS011;64022;53.652;9.792;2023-04-25T09:02:14;17.37;;;5.43;;
30243;SDS011;64022;53.652;9.792;2023-04-25T09:04:42;16.90;;;5.50;;
30243;SDS011;64022;53.652;9.792;2023-04-25T09:07:08;18.20;;;5.70;;
30243;SDS011;64022;53.652;9.792;2023-04-25T09:09:34;16.57;;;5.00;;
30243;SDS011;64022;53.652;9.792;2023-04-25T09:12:00;17.40;;;5.57;;
30243;SDS011;64022;53.652;9.792;2023-04-25T09:14:26;12.67;;;5.17;;
30243;SDS011;64022;53.652;9.792;2023-04-25T09:19:22;17.63;;;5.20;;
30243;SDS011;64022;53.652;9.792;2023-04-25T09:21:55;17.30;;;5.13;;
30243;SDS011;64022;53.652;9.792;2023-04-25T09:24:42;15.50;;;5.40;;
30243;SDS011;64022;53.652;9.792;2023-04-25T09:27:09;17.13;;;5.20;;
30243;SDS011;64022;53.652;9.792;2023-04-25T09:29:37;18.02;;;5.38;;
30243;SDS011;64022;53.652;9.792;2023-04-25T09:34:44;19.50;;;5.22;;
30243;SDS011;64022;53.652;9.792;2023-04-25T09:37:28;19.88;;;5.45;;
30243;SDS011;64022;53.652;9.792;2023-04-25T09:39:56;15.73;;;4.95;;
30243;SDS011;64022;53.652;9.792;2023-04-25T09:42:30;16.88;;;5.00;;
30243;SDS011;64022;53.652;9.792;2023-04-25T09:44:57;17.15;;;5.05;;
30243;SDS011;64022;53.652;9.792;2023-04-25T09:47:23;13.93;;;5.40;;
30243;SDS011;64022;53.652;9.792;2023-04-25T09:49:50;20.73;;;5.20;;
30243;SDS011;64022;53.652;9.792;2023-04-25T09:52:20;12.20;;;4.45;;
30243;SDS011;64022;53.652;9.792;2023-04-25T09:54:47;13.73;;;4.78;;
30243;SDS011;64022;53.652;9.792;2023-04-25T09:59:51;15.15;;;5.53;;
30243;SDS011;64022;53.652;9.792;2023-04-25T10:02:18;14.98;;;4.68;;
30243;SDS011;64022;53.652;9.792;2023-04-25T10:04:52;16.15;;;4.93;;
30243;SDS011;64022;53.652;9.792;2023-04-25T10:07:23;17.90;;;5.03;;
30243;SDS011;64022;53.652;9.792;2023-04-25T10:09:55;15.40;;;4.63;;
30243;SDS011;64022;53.652;9.792;2023-04-25T10:12:27;14.57;;;5.32;;
30243;SDS011;64022;53.652;9.792;2023-04-25T10:14:54;14.43;;;5.00;;
30243;SDS011;64022;53.652;9.792;2023-04-25T10:17:20;15.48;;;5.13;;
30243;SDS011;64022;53.652;9.792;2023-04-25T10:19:47;15.90;;;4.40;;
30243;SDS011;64022;53.652;9.792;2023-04-25T10:24:49;14.15;;;4.72;;
30243;SDS011;64022;53.652;9.792;2023-04-25T10:27:16;16.00;;;5.55;;
30243;SDS011;64022;53.652;9.792;2023-04-25T10:29:43;17.58;;;5.03;;
30243;SDS011;64022;53.652;9.792;2023-04-25T10:32:09;18.33;;;5.63;;
30243;SDS011;64022;53.652;9.792;2023-04-25T10:34:41;14.93;;;4.43;;
30243;SDS011;64022;53.652;9.792;2023-04-25T10:37:09;14.18;;;4.63;;
30243;SDS011;64022;53.652;9.792;2023-04-25T10:39:35;16.75;;;4.55;;
30243;SDS011;64022;53.652;9.792;2023-04-25T10:42:06;14.68;;;5.38;;
30243;SDS011;64022;53.652;9.792;2023-04-25T10:44:36;14.30;;;4.70;;
30243;SDS011;64022;53.652;9.792;2023-04-25T10:47:05;12.98;;;4.82;;
30243;SDS011;64022;53.652;9.792;2023-04-25T10:49:33;15.27;;;4.78;;
30243;SDS011;64022;53.652;9.792;2023-04-25T10:52:18;15.50;;;4.45;;
30243;SDS011;64022;53.652;9.792;2023-04-25T10:54:51;13.02;;;4.55;;
30243;SDS011;64022;53.652;9.792;2023-04-25T11:02:51;15.38;;;4.15;;
30243;SDS011;64022;53.652;9.792;2023-04-25T11:05:19;12.95;;;3.97;;
30243;SDS011;64022;53.652;9.792;2023-04-25T11:07:49;13.23;;;4.13;;
30243;SDS011;64022;53.652;9.792;2023-04-25T11:10:17;11.77;;;4.80;;
30243;SDS011;64022;53.652;9.792;2023-04-25T11:12:43;10.70;;;4.38;;
30243;SDS011;64022;53.652;9.792;2023-04-25T11:15:10;11.55;;;4.28;;
30243;SDS011;64022;53.652;9.792;2023-04-25T11:17:36;10.67;;;4.47;;
30243;SDS011;64022;53.652;9.792;2023-04-25T11:20:01;12.03;;;4.37;;
30243;SDS011;64022;53.652;9.792;2023-04-25T11:22:31;11.32;;;4.35;;
30243;SDS011;64022;53.652;9.792;2023-04-25T11:24:56;12.03;;;4.10;;
30243;SDS011;64022;53.652;9.792;2023-04-25T11:27:22;14.70;;;4.00;;
30243;SDS011;64022;53.652;9.792;2023-04-25T11:29:49;11.80;;;4.45;;
30243;SDS011;64022;53.652;9.792;2023-04-25T11:32:17;8.70;;;3.87;;
30243;SDS011;64022;53.652;9.792;2023-04-25T11:34:44;9.70;;;4.10;;
30243;SDS011;64022;53.652;9.792;2023-04-25T11:37:12;10.55;;;4.25;;
30243;SDS011;64022;53.652;9.792;2023-04-25T11:39:42;10.50;;;4.10;;
30243;SDS011;64022;53.652;9.792;2023-04-25T11:42:09;10.63;;;3.65;;
30243;SDS011;64022;53.652;9.792;2023-04-25T11:44:35;13.97;;;5.17;;
30243;SDS011;64022;53.652;9.792;2023-04-25T11:47:03;13.40;;;4.32;;
30243;SDS011;64022;53.652;9.792;2023-04-25T11:49:32;7.37;;;4.10;;
30243;SDS011;64022;53.652;9.792;2023-04-25T11:51:57;10.07;;;4.50;;
30243;SDS011;64022;53.652;9.792;2023-04-25T11:54:23;7.07;;;3.93;;
30243;SDS011;64022;53.652;9.792;2023-04-25T11:56:48;12.27;;;4.60;;
30243;SDS011;64022;53.652;9.792;2023-04-25T11:59:14;14.03;;;4.47;;
30243;SDS011;64022;53.652;9.792;2023-04-25T12:01:46;8.82;;;4.03;;
30243;SDS011;64022;53.652;9.792;2023-04-25T12:06:41;11.10;;;4.72;;
30243;SDS011;64022;53.652;9.792;2023-04-25T12:09:08;11.13;;;3.88;;
30243;SDS011;64022;53.652;9.792;2023-04-25T12:11:45;13.25;;;4.57;;
30243;SDS011;64022;53.652;9.792;2023-04-25T12:14:22;8.70;;;4.47;;
30243;SDS011;64022;53.652;9.792;2023-04-25T12:16:49;9.05;;;4.47;;
30243;SDS011;64022;53.652;9.792;2023-04-25T12:19:16;11.30;;;4.35;;
30243;SDS011;64022;53.652;9.792;2023-04-25T12:24:27;13.13;;;4.22;;
30243;SDS011;64022;53.652;9.792;2023-04-25T12:26:59;8.82;;;4.85;;
30243;SDS011;64022;53.652;9.792;2023-04-25T12:29:27;10.10;;;4.68;;
30243;SDS011;64022;53.652;9.792;2023-04-25T12:31:54;10.18;;;4.10;;
30243;SDS011;64022;53.652;9.792;2023-04-25T12:36:47;8.50;;;4.15;;
30243;SDS011;64022;53.652;9.792;2023-04-25T12:39:16;10.23;;;4.22;;
30243;SDS011;64022;53.652;9.792;2023-04-25T12:41:49;8.95;;;4.18;;
30243;SDS011;64022;53.652;9.792;2023-04-25T12:44:17;10.57;;;4.38;;
30243;SDS011;64022;53.652;9.792;2023-04-25T12:46:42;8.27;;;4.30;;
30243;SDS011;64022;53.652;9.792;2023-04-25T12:49:08;7.43;;;3.73;;
30243;SDS011;64022;53.652;9.792;2023-04-25T12:51:37;9.93;;;4.33;;
30243;SDS011;64022;53.652;9.792;2023-04-25T12:54:03;9.95;;;4.28;;
30243;SDS011;64022;53.652;9.792;2023-04-25T12:56:30;9.65;;;4.13;;
30243;SDS011;64022;53.652;9.792;2023-04-25T12:58:56;7.97;;;4.10;;
30243;SDS011;64022;53.652;9.792;2023-04-25T13:01:22;6.23;;;3.67;;
30243;SDS011;64022;53.652;9.792;2023-04-25T13:03:48;8.73;;;3.97;;
30243;SDS011;64022;53.652;9.792;2023-04-25T13:06:14;8.80;;;4.50;;
30243;SDS011;64022;53.652;9.792;2023-04-25T13:08:40;8.20;;;4.50;;
30243;SDS011;64022;53.652;9.792;2023-04-25T13:11:07;6.78;;;3.67;;
30243;SDS011;64022;53.652;9.792;2023-04-25T13:13:33;7.07;;;4.03;;
30243;SDS011;64022;53.652;9.792;2023-04-25T13:16:00;8.95;;;4.13;;
30243;SDS011;64022;53.652;9.792;2023-04-25T13:18:29;5.53;;;3.70;;
30243;SDS011;64022;53.652;9.792;2023-04-25T13:20:55;9.15;;;4.43;;
30243;SDS011;64022;53.652;9.792;2023-04-25T13:23:22;7.63;;;3.83;;
30243;SDS011;64022;53.652;9.792;2023-04-25T13:25:48;8.40;;;4.40;;
30243;SDS011;64022;53.652;9.792;2023-04-25T13:28:14;10.60;;;4.17;;
30243;SDS011;64022;53.652;9.792;2023-04-25T13:30:40;9.53;;;3.93;;
30243;SDS011;64022;53.652;9.792;2023-04-25T13:33:05;9.53;;;4.13;;
30243;SDS011;64022;53.652;9.792;2023-04-25T13:35:31;8.37;;;4.80;;
30243;SDS011;64022;53.652;9.792;2023-04-25T13:37:58;8.52;;;4.25;;
30243;SDS011;64022;53.652;9.792;2023-04-25T13:40:24;8.25;;;4.72;;
30243;SDS011;64022;53.652;9.792;2023-04-25T13:42:50;10.70;;;4.40;;
30243;SDS011;64022;53.652;9.792;2023-04-25T13:45:16;9.10;;;4.13;;
30243;SDS011;64022;53.652;9.792;2023-04-25T13:47:41;7.87;;;4.10;;
30243;SDS011;64022;53.652;9.792;2023-04-25T13:50:07;11.73;;;4.40;;
30243;SDS011;64022;53.652;9.792;2023-04-25T13:52:33;6.93;;;4.33;;
30243;SDS011;64022;53.652;9.792;2023-04-25T13:54:59;8.73;;;4.23;;
30243;SDS011;64022;53.652;9.792;2023-04-25T13:57:25;8.60;;;4.50;;
30243;SDS011;64022;53.652;9.792;2023-04-25T13:59:51;8.53;;;4.40;;
30243;SDS011;64022;53.652;9.792;2023-04-25T14:02:16;7.00;;;4.15;;
30243;SDS011;64022;53.652;9.792;2023-04-25T14:04:42;7.37;;;4.53;;
30243;SDS011;64022;53.652;9.792;2023-04-25T14:07:08;9.47;;;4.53;;
30243;SDS011;64022;53.652;9.792;2023-04-25T14:09:35;7.25;;;4.20;;
30243;SDS011;64022;53.652;9.792;2023-04-25T14:12:01;9.87;;;4.43;;
30243;SDS011;64022;53.652;9.792;2023-04-25T14:14:27;8.27;;;4.20;;
30243;SDS011;64022;53.652;9.792;2023-04-25T14:16:52;9.30;;;4.60;;
30243;SDS011;64022;53.652;9.792;2023-04-25T14:19:19;7.68;;;5.20;;
30243;SDS011;64022;53.652;9.792;2023-04-25T14:21:45;9.07;;;5.03;;
30243;SDS011;64022;53.652;9.792;2023-04-25T14:24:11;8.77;;;4.90;;
30243;SDS011;64022;53.652;9.792;2023-04-25T14:26:39;7.18;;;4.13;;
30243;SDS011;64022;53.652;9.792;2023-04-25T14:31:32;9.45;;;4.10;;
30243;SDS011;64022;53.652;9.792;2023-04-25T14:33:58;8.40;;;4.32;;
30243;SDS011;64022;53.652;9.792;2023-04-25T14:36:24;8.13;;;5.10;;
30243;SDS011;64022;53.652;9.792;2023-04-25T14:38:51;11.15;;;4.93;;
30243;SDS011;64022;53.652;9.792;2023-04-25T14:41:17;7.47;;;4.18;;
30243;SDS011;64022;53.652;9.792;2023-04-25T14:43:43;9.13;;;4.33;;
30243;SDS011;64022;53.652;9.792;2023-04-25T14:46:09;10.90;;;4.60;;
30243;SDS011;64022;53.652;9.792;2023-04-25T14:48:35;10.90;;;5.30;;
30243;SDS011;64022;53.652;9.792;2023-04-25T14:51:01;7.77;;;4.60;;
30243;SDS011;64022;53.652;9.792;2023-04-25T14:53:27;10.20;;;4.67;;
30243;SDS011;64022;53.652;9.792;2023-04-25T14:55:53;7.60;;;4.10;;
30243;SDS011;64022;53.652;9.792;2023-04-25T14:58:18;14.80;;;4.80;;
30243;SDS011;64022;53.652;9.792;2023-04-25T15:00:44;8.18;;;4.25;;
30243;SDS011;64022;53.652;9.792;2023-04-25T15:03:10;9.40;;;4.47;;